createdAt,value
2022-12-18T00:01:20.856Z,72.63
2022-12-18T00:03:47.899Z,87.20
2022-12-18T00:06:16.426Z,83.38
2022-12-18T00:08:43.275Z,66.20
2022-12-18T00:11:12.908Z,70.32
2022-12-18T00:13:39.893Z,67.55
2022-12-18T00:16:10.776Z,61.95
2022-12-18T00:18:38.091Z,61.65
2022-12-18T00:21:07.135Z,54.17
2022-12-18T00:23:35.308Z,61.08
2022-12-18T00:26:04.054Z,62.20
2022-12-18T00:28:30.713Z,66.85
2022-12-18T00:31:08.103Z,67.20
2022-12-18T00:33:35.765Z,65.90
2022-12-18T00:36:03.659Z,56.83
2022-12-18T00:38:30.101Z,69.20
2022-12-18T00:40:56.763Z,70.18
2022-12-18T00:43:23.185Z,66.03
2022-12-18T00:45:50.178Z,51.40
2022-12-18T00:48:16.818Z,54.25
2022-12-18T00:50:43.442Z,56.47
2022-12-18T00:53:09.848Z,56.80
2022-12-18T00:55:37.929Z,55.53
2022-12-18T00:58:04.554Z,52.53
2022-12-18T01:00:31.573Z,60.30
2022-12-18T01:02:58.181Z,62.17
2022-12-18T01:05:24.707Z,67.70
2022-12-18T01:07:51.092Z,62.60
2022-12-18T01:10:17.738Z,57.13
2022-12-18T01:12:44.741Z,58.45
2022-12-18T01:15:13.338Z,66.85
2022-12-18T01:17:40.027Z,62.78
2022-12-18T01:20:07.227Z,56.78
2022-12-18T01:22:33.615Z,67.07
2022-12-18T01:25:00.085Z,66.03
2022-12-18T01:27:26.478Z,66.65
2022-12-18T01:29:52.914Z,70.43
2022-12-18T01:32:19.372Z,66.05
2022-12-18T01:34:45.991Z,57.35
2022-12-18T01:37:12.763Z,54.95
2022-12-18T01:39:39.222Z,49.33
2022-12-18T01:42:15.629Z,53.05
2022-12-18T01:44:54.187Z,57.40
2022-12-18T01:47:45.552Z,59.80
2022-12-18T01:50:15.731Z,60.83
2022-12-18T01:52:44.690Z,64.10
2022-12-18T01:55:13.661Z,59.20
2022-12-18T01:57:41.319Z,66.05
2022-12-18T02:00:19.686Z,62.95
2022-12-18T02:02:49.197Z,55.33
2022-12-18T02:05:26.331Z,55.75
2022-12-18T02:08:11.724Z,62.97
2022-12-18T02:10:58.328Z,54.70
2022-12-18T02:13:44.427Z,54.25
2022-12-18T02:16:25.443Z,55.05
2022-12-18T02:18:58.841Z,57.28
2022-12-18T02:24:58.792Z,55.72
2022-12-18T02:27:25.850Z,52.88
2022-12-18T02:29:58.573Z,47.05
2022-12-18T02:34:58.094Z,40.70
2022-12-18T02:37:27.667Z,37.72
2022-12-18T02:39:57.848Z,36.78
2022-12-18T02:42:25.017Z,37.83
2022-12-18T02:44:52.893Z,40.38
2022-12-18T02:47:23.335Z,42.40
2022-12-18T02:49:58.810Z,47.78
2022-12-18T02:52:43.493Z,49.58
2022-12-18T02:55:30.733Z,54.00
2022-12-18T02:58:04.190Z,49.10
2022-12-18T03:00:39.439Z,52.13
2022-12-18T03:03:16.920Z,47.47
2022-12-18T03:05:50.681Z,49.05
2022-12-18T03:08:25.074Z,49.00
2022-12-18T03:11:02.856Z,62.10
2022-12-18T03:13:34.337Z,50.75
2022-12-18T03:16:02.468Z,48.20
2022-12-18T03:18:39.642Z,61.35
2022-12-18T03:21:09.068Z,49.10
2022-12-18T03:23:41.192Z,51.63
2022-12-18T03:26:12.448Z,52.00
2022-12-18T03:28:46.200Z,43.88
2022-12-18T03:31:15.126Z,49.70
2022-12-18T03:33:54.726Z,58.70
2022-12-18T03:36:22.461Z,47.05
2022-12-18T03:38:49.003Z,46.17
2022-12-18T03:41:35.047Z,47.47
2022-12-18T03:44:19.335Z,44.88
2022-12-18T03:47:04.127Z,45.28
2022-12-18T03:49:48.728Z,46.20
2022-12-18T03:52:18.209Z,43.17
2022-12-18T03:54:46.510Z,45.47
2022-12-18T03:57:18.088Z,43.00
2022-12-18T03:59:47.019Z,44.25
2022-12-18T04:02:16.954Z,40.35
2022-12-18T04:04:45.545Z,41.13
2022-12-18T04:07:14.390Z,35.95
2022-12-18T04:09:43.071Z,33.95
2022-12-18T04:12:10.178Z,31.38
2022-12-18T04:14:36.711Z,25.88
2022-12-18T04:17:04.020Z,26.75
2022-12-18T04:19:30.462Z,24.00
2022-12-18T04:21:57.623Z,31.17
2022-12-18T04:24:24.195Z,32.53
2022-12-18T04:26:50.713Z,36.17
2022-12-18T04:29:17.399Z,26.77
2022-12-18T04:31:43.861Z,29.08
2022-12-18T04:34:10.308Z,29.73
2022-12-18T04:36:36.818Z,34.42
2022-12-18T04:39:03.268Z,31.65
2022-12-18T04:41:29.723Z,36.30
2022-12-18T04:43:56.225Z,37.53
2022-12-18T04:46:22.705Z,43.05
2022-12-18T04:48:49.400Z,38.55
2022-12-18T04:51:15.936Z,38.10
2022-12-18T04:53:42.724Z,29.90
2022-12-18T04:56:12.444Z,30.27
2022-12-18T04:58:40.632Z,32.42
2022-12-18T05:01:11.058Z,30.70
2022-12-18T05:03:38.619Z,38.22
2022-12-18T05:06:06.797Z,35.47
2022-12-18T05:08:33.688Z,37.03
2022-12-18T05:11:08.242Z,44.13
2022-12-18T05:13:36.422Z,43.05
2022-12-18T05:16:03.933Z,46.83
2022-12-18T05:18:30.638Z,48.70
2022-12-18T05:20:57.215Z,53.28
2022-12-18T05:23:24.960Z,49.70
2022-12-18T05:25:58.958Z,35.42
2022-12-18T05:28:27.298Z,31.25
2022-12-18T05:30:56.435Z,29.80
2022-12-18T05:33:25.541Z,32.53
2022-12-18T05:35:57.200Z,32.05
2022-12-18T05:38:25.878Z,27.17
2022-12-18T05:40:53.317Z,25.52
2022-12-18T05:43:22.828Z,33.42
2022-12-18T05:45:50.105Z,36.92
2022-12-18T05:48:17.496Z,31.35
2022-12-18T05:50:48.343Z,27.27
2022-12-18T05:53:17.083Z,30.58
2022-12-18T05:55:46.669Z,28.35
2022-12-18T05:58:15.655Z,22.88
2022-12-18T06:00:44.434Z,22.50
2022-12-18T06:03:13.018Z,22.42
2022-12-18T06:05:42.139Z,23.73
2022-12-18T06:08:08.797Z,24.50
2022-12-18T06:10:35.273Z,20.33
2022-12-18T06:13:01.763Z,25.50
2022-12-18T06:15:28.423Z,28.65
2022-12-18T06:17:55.218Z,25.25
2022-12-18T06:20:21.654Z,29.00
2022-12-18T06:22:48.350Z,28.73
2022-12-18T06:25:14.927Z,30.73
2022-12-18T06:27:41.433Z,21.08
2022-12-18T06:30:09.629Z,22.55
2022-12-18T06:32:36.052Z,25.38
2022-12-18T06:35:02.542Z,30.52
2022-12-18T06:37:29.249Z,32.42
2022-12-18T06:39:55.789Z,33.47
2022-12-18T06:42:22.391Z,36.05
2022-12-18T06:44:49.044Z,31.80
2022-12-18T06:47:15.503Z,36.33
2022-12-18T06:49:41.968Z,33.78
2022-12-18T06:52:08.363Z,29.80
2022-12-18T06:54:34.851Z,28.92
2022-12-18T06:57:01.325Z,36.70
2022-12-18T06:59:27.778Z,30.98
2022-12-18T07:01:54.790Z,30.80
2022-12-18T07:04:21.337Z,32.85
2022-12-18T07:06:47.774Z,30.33
2022-12-18T07:09:14.199Z,24.88
2022-12-18T07:11:40.567Z,25.70
2022-12-18T07:14:09.848Z,24.80
2022-12-18T07:16:36.612Z,25.88
2022-12-18T07:19:03.196Z,24.35
2022-12-18T07:21:29.739Z,26.60
2022-12-18T07:23:56.153Z,35.13
2022-12-18T07:26:23.001Z,35.53
2022-12-18T07:28:49.978Z,52.15
2022-12-18T07:31:22.061Z,60.45
2022-12-18T07:33:49.183Z,29.35
2022-12-18T07:36:15.824Z,35.00
2022-12-18T07:38:42.629Z,27.55
2022-12-18T07:41:11.951Z,35.35
2022-12-18T07:43:40.126Z,47.58
2022-12-18T07:46:08.425Z,40.78
2022-12-18T07:48:34.961Z,40.88
2022-12-18T07:51:06.702Z,37.13
2022-12-18T07:53:34.877Z,34.58
2022-12-18T07:58:51.220Z,28.85
2022-12-18T08:01:18.150Z,32.83
2022-12-18T08:03:45.093Z,28.25
2022-12-18T08:06:11.606Z,35.72
2022-12-18T08:08:38.393Z,46.55
2022-12-18T08:11:05.052Z,40.85
2022-12-18T08:13:31.747Z,37.03
2022-12-18T08:16:02.431Z,45.75
2022-12-18T08:18:29.226Z,41.95
2022-12-18T08:20:56.605Z,40.17
2022-12-18T08:23:26.459Z,39.08
2022-12-18T08:25:55.020Z,39.35
2022-12-18T08:28:21.508Z,41.33
2022-12-18T08:30:53.205Z,38.25
2022-12-18T08:33:19.759Z,40.50
2022-12-18T08:35:46.367Z,36.55
2022-12-18T08:38:12.782Z,37.20
2022-12-18T08:40:39.308Z,38.35
2022-12-18T08:43:41.640Z,41.33
2022-12-18T08:46:08.514Z,41.75
2022-12-18T08:48:34.980Z,37.42
2022-12-18T08:51:01.662Z,38.85
2022-12-18T08:53:34.078Z,37.63
2022-12-18T08:56:02.216Z,38.08
2022-12-18T08:58:28.648Z,35.92
2022-12-18T09:00:55.113Z,38.58
2022-12-18T09:03:23.557Z,36.05
2022-12-18T09:05:50.091Z,38.60
2022-12-18T09:08:16.496Z,42.90
2022-12-18T09:10:45.901Z,36.28
2022-12-18T09:13:13.314Z,36.35
2022-12-18T09:15:44.153Z,31.65
2022-12-18T09:18:10.595Z,28.10
2022-12-18T09:20:37.758Z,31.08
2022-12-18T09:23:04.742Z,30.50
2022-12-18T09:25:34.074Z,27.27
2022-12-18T09:28:01.145Z,31.23
2022-12-18T09:30:28.209Z,31.80
2022-12-18T09:32:54.904Z,33.13
2022-12-18T09:35:21.391Z,28.42
2022-12-18T09:37:48.069Z,36.72
2022-12-18T09:40:20.651Z,35.13
2022-12-18T09:42:53.154Z,33.97
2022-12-18T09:45:19.790Z,32.35
2022-12-18T09:47:48.515Z,34.42
2022-12-18T09:50:35.170Z,34.05
2022-12-18T09:53:11.073Z,34.58
2022-12-18T09:55:42.140Z,32.92
2022-12-18T09:58:45.314Z,31.17
2022-12-18T10:01:15.457Z,27.60
2022-12-18T10:03:42.231Z,30.77
2022-12-18T10:06:16.821Z,30.50
2022-12-18T10:09:13.005Z,29.95
2022-12-18T10:11:54.276Z,27.98
2022-12-18T10:14:39.215Z,25.42
2022-12-18T10:17:36.692Z,30.83
2022-12-18T10:20:21.188Z,81.90
2022-12-18T10:22:51.576Z,43.42
2022-12-18T10:25:22.660Z,44.50
2022-12-18T10:27:52.429Z,33.95
2022-12-18T10:30:21.995Z,34.08
2022-12-18T10:32:48.450Z,34.25
2022-12-18T10:35:20.148Z,32.15
2022-12-18T10:38:22.683Z,26.33
2022-12-18T10:40:56.753Z,26.77
2022-12-18T10:43:33.435Z,26.35
2022-12-18T10:46:06.881Z,23.42
2022-12-18T10:48:37.512Z,24.50
2022-12-18T10:51:12.888Z,26.00
2022-12-18T10:53:43.724Z,25.38
2022-12-18T10:56:10.589Z,23.55
2022-12-18T10:58:39.079Z,25.92
2022-12-18T11:01:21.213Z,24.13
2022-12-18T11:04:02.695Z,24.98
2022-12-18T11:06:30.185Z,25.38
2022-12-18T11:09:06.570Z,22.83
2022-12-18T11:11:39.062Z,24.85
2022-12-18T11:14:18.902Z,29.17
2022-12-18T11:17:24.415Z,27.65
2022-12-18T11:19:40.665Z,25.40
2022-12-18T11:22:28.553Z,23.30
2022-12-18T11:28:07.226Z,23.25
2022-12-18T11:30:36.180Z,27.73
2022-12-18T11:33:21.793Z,25.02
2022-12-18T11:36:04.606Z,30.00
2022-12-18T11:38:35.507Z,23.77
2022-12-18T11:41:23.699Z,24.60
2022-12-18T11:44:03.072Z,21.20
2022-12-18T11:46:42.312Z,24.88
2022-12-18T11:49:18.525Z,20.10
2022-12-18T11:52:03.151Z,20.77
2022-12-18T11:54:29.683Z,17.33
2022-12-18T11:57:28.168Z,21.27
2022-12-18T12:00:04.946Z,15.05
2022-12-18T12:02:59.378Z,19.45
2022-12-18T12:05:49.298Z,16.20
2022-12-18T12:08:39.264Z,17.10
2022-12-18T12:11:35.902Z,18.55
2022-12-18T12:14:16.702Z,15.73
2022-12-18T12:17:09.028Z,16.60
2022-12-18T12:19:55.020Z,18.25
2022-12-18T12:22:53.952Z,15.90
2022-12-18T12:25:35.559Z,18.55
2022-12-18T12:28:29.473Z,20.13
2022-12-18T12:31:21.710Z,18.40
2022-12-18T12:33:56.979Z,17.77
2022-12-18T12:36:29.387Z,16.30
2022-12-18T12:39:00.788Z,16.52
2022-12-18T12:41:52.273Z,17.92
2022-12-18T12:44:28.938Z,20.27
2022-12-18T12:46:59.905Z,21.15
2022-12-18T12:49:30.135Z,21.48
2022-12-18T12:52:05.971Z,18.00
2022-12-18T12:54:34.860Z,18.92
2022-12-18T12:57:16.014Z,17.98
2022-12-18T12:59:53.811Z,19.58
2022-12-18T13:02:36.912Z,23.63
2022-12-18T13:05:22.262Z,22.27
2022-12-18T13:07:55.858Z,17.92
2022-12-18T13:10:33.353Z,20.80
2022-12-18T13:13:13.412Z,24.30
2022-12-18T13:15:46.886Z,21.95
2022-12-18T13:18:18.491Z,25.05
2022-12-18T13:20:53.082Z,18.77
2022-12-18T13:23:24.902Z,24.67
2022-12-18T13:26:26.448Z,25.30
2022-12-18T13:28:57.210Z,24.33
2022-12-18T13:31:42.066Z,37.00
2022-12-18T13:34:28.025Z,23.42
2022-12-18T13:36:58.368Z,27.48
2022-12-18T13:39:35.194Z,27.85
2022-12-18T13:42:05.343Z,24.42
2022-12-18T13:44:44.608Z,37.00
2022-12-18T13:47:34.755Z,27.40
2022-12-18T13:50:02.773Z,28.20
2022-12-18T13:52:37.929Z,33.95
2022-12-18T13:55:08.096Z,29.13
2022-12-18T13:57:39.268Z,33.22
2022-12-18T14:00:29.524Z,35.55
2022-12-18T14:02:57.798Z,30.20
2022-12-18T14:05:32.586Z,34.35
2022-12-18T14:08:15.321Z,33.40
2022-12-18T14:10:49.086Z,32.50
2022-12-18T14:13:38.382Z,28.02
2022-12-18T14:16:07.316Z,27.58
2022-12-18T14:18:44.954Z,28.33
2022-12-18T14:21:30.226Z,27.67
2022-12-18T14:24:22.210Z,27.45
2022-12-18T14:26:50.799Z,27.33
2022-12-18T14:29:31.353Z,27.80
2022-12-18T14:32:17.356Z,29.13
2022-12-18T14:34:48.341Z,25.63
2022-12-18T14:37:18.160Z,30.00
2022-12-18T14:39:58.996Z,29.83
2022-12-18T14:42:29.139Z,26.80
2022-12-18T14:45:52.702Z,33.97
2022-12-18T14:48:23.687Z,26.60
2022-12-18T14:51:18.406Z,30.27
2022-12-18T14:53:55.307Z,27.40
2022-12-18T14:56:26.134Z,26.70
2022-12-18T14:59:23.744Z,32.50
2022-12-18T15:02:05.539Z,26.17
2022-12-18T15:04:44.207Z,29.85
2022-12-18T15:07:20.131Z,29.67
2022-12-18T15:10:13.016Z,39.33
2022-12-18T15:12:45.085Z,27.15
2022-12-18T15:15:47.690Z,31.65
2022-12-18T15:18:21.040Z,30.67
2022-12-18T15:20:49.955Z,28.35
2022-12-18T15:23:23.830Z,27.55
2022-12-18T15:26:11.475Z,37.22
2022-12-18T15:28:58.403Z,31.23
2022-12-18T15:31:38.288Z,34.45
2022-12-18T15:34:21.535Z,33.03
2022-12-18T15:36:47.988Z,31.45
2022-12-18T15:39:14.622Z,34.08
2022-12-18T15:41:41.501Z,32.20
2022-12-18T15:44:24.621Z,29.85
2022-12-18T15:46:51.048Z,34.25
2022-12-18T15:49:17.540Z,34.10
2022-12-18T15:51:44.027Z,29.77
2022-12-18T15:54:16.597Z,32.20
2022-12-18T15:57:02.108Z,34.78
2022-12-18T15:59:28.513Z,31.83
2022-12-18T16:01:56.016Z,35.88
2022-12-18T16:04:24.507Z,35.63
2022-12-18T16:07:14.553Z,32.03
2022-12-18T16:09:39.891Z,35.30
2022-12-18T16:12:11.114Z,37.33
2022-12-18T16:14:37.524Z,32.92
2022-12-18T16:17:09.826Z,34.33
2022-12-18T16:19:36.337Z,32.88
2022-12-18T16:22:02.735Z,30.85
2022-12-18T16:24:31.934Z,31.63
2022-12-18T16:27:00.748Z,37.05
2022-12-18T16:29:29.503Z,36.38
2022-12-18T16:31:56.966Z,36.53
2022-12-18T16:34:29.682Z,31.65
2022-12-18T16:37:10.369Z,35.08
2022-12-18T16:39:37.889Z,33.97
2022-12-18T16:42:17.844Z,33.67
2022-12-18T16:44:44.798Z,39.63
2022-12-18T16:47:12.932Z,38.65
2022-12-18T16:49:41.817Z,37.17
2022-12-18T16:52:09.215Z,42.42
2022-12-18T16:54:38.397Z,41.08
2022-12-18T16:57:05.471Z,39.92
2022-12-18T16:59:36.302Z,44.00
2022-12-18T17:02:02.886Z,44.15
2022-12-18T17:04:29.459Z,40.75
2022-12-18T17:06:55.863Z,37.53
2022-12-18T17:09:25.612Z,41.60
2022-12-18T17:11:53.545Z,42.25
2022-12-18T17:14:22.080Z,42.88
2022-12-18T17:16:57.843Z,39.90
2022-12-18T17:19:35.384Z,44.22
2022-12-18T17:22:01.850Z,41.20
2022-12-18T17:24:33.078Z,42.70
2022-12-18T17:27:01.526Z,42.83
2022-12-18T17:29:28.075Z,42.13
2022-12-18T17:31:54.492Z,40.08
2022-12-18T17:34:21.870Z,40.72
2022-12-18T17:36:48.306Z,42.05
2022-12-18T17:39:21.933Z,45.50
2022-12-18T17:41:49.384Z,47.30
2022-12-18T17:44:16.677Z,49.70
2022-12-18T17:46:43.769Z,49.05
2022-12-18T17:49:11.336Z,44.83
2022-12-18T17:51:37.969Z,40.70
2022-12-18T17:54:05.387Z,42.50
2022-12-18T17:56:32.873Z,43.80
2022-12-18T17:58:59.855Z,44.90
2022-12-18T18:01:27.021Z,43.55
2022-12-18T18:03:56.151Z,41.80
2022-12-18T18:06:25.157Z,41.95
2022-12-18T18:08:53.378Z,40.33
2022-12-18T18:11:40.068Z,39.42
2022-12-18T18:14:13.274Z,32.83
2022-12-18T18:16:42.836Z,40.08
2022-12-18T18:19:12.578Z,43.40
2022-12-18T18:21:41.151Z,35.70
2022-12-18T18:24:08.940Z,44.20
2022-12-18T18:26:36.816Z,44.20
2022-12-18T18:29:06.104Z,39.25
2022-12-18T18:31:35.326Z,35.88
2022-12-18T18:34:07.377Z,38.35
2022-12-18T18:36:34.548Z,37.83
2022-12-18T18:39:01.464Z,44.05
2022-12-18T18:41:29.877Z,37.90
2022-12-18T18:43:57.957Z,45.58
2022-12-18T18:46:25.047Z,40.10
2022-12-18T18:48:51.757Z,45.20
2022-12-18T18:51:21.216Z,61.60
2022-12-18T18:53:50.387Z,56.80
2022-12-18T18:56:56.550Z,61.03
2022-12-18T18:59:06.041Z,52.20
2022-12-18T19:01:32.984Z,51.08
2022-12-18T19:04:03.864Z,52.88
2022-12-18T19:06:30.496Z,59.97
2022-12-18T19:08:58.176Z,59.42
2022-12-18T19:11:44.837Z,58.05
2022-12-18T19:14:13.473Z,56.22
2022-12-18T19:16:40.515Z,55.28
2022-12-18T19:19:07.057Z,55.70
2022-12-18T19:21:34.835Z,55.75
2022-12-18T19:24:02.782Z,53.15
2022-12-18T19:26:29.589Z,54.35
2022-12-18T19:29:08.251Z,53.40
2022-12-18T19:31:37.244Z,62.95
2022-12-18T19:34:08.146Z,69.28
2022-12-18T19:36:37.739Z,60.22
2022-12-18T19:39:10.876Z,68.32
2022-12-18T19:41:37.768Z,54.58
2022-12-18T19:44:08.217Z,52.42
2022-12-18T19:46:35.736Z,61.50
2022-12-18T19:49:02.421Z,55.47
2022-12-18T19:51:30.367Z,59.83
2022-12-18T19:53:59.338Z,70.93
2022-12-18T19:56:31.146Z,51.50
2022-12-18T19:58:58.089Z,53.47
2022-12-18T20:01:25.872Z,55.15
2022-12-18T20:03:55.204Z,53.10
2022-12-18T20:06:34.755Z,43.33
2022-12-18T20:09:05.746Z,41.78
2022-12-18T20:11:33.557Z,43.65
2022-12-18T20:14:03.980Z,46.05
2022-12-18T20:16:30.696Z,28.92
2022-12-18T20:18:58.398Z,34.15
2022-12-18T20:21:25.305Z,33.67
2022-12-18T20:23:52.327Z,32.90
2022-12-18T20:26:19.346Z,33.70
2022-12-18T20:28:45.921Z,33.95
2022-12-18T20:31:13.523Z,38.28
2022-12-18T20:33:41.320Z,35.40
2022-12-18T20:36:13.784Z,48.63
2022-12-18T20:38:41.027Z,54.28
2022-12-18T20:41:16.453Z,57.83
2022-12-18T20:43:44.067Z,62.53
2022-12-18T20:46:13.053Z,57.13
2022-12-18T20:48:41.584Z,52.95
2022-12-18T20:51:10.630Z,46.95
2022-12-18T20:53:37.604Z,48.75
2022-12-18T20:56:09.877Z,43.10
2022-12-18T20:58:36.860Z,54.67
2022-12-18T21:01:14.999Z,50.35
2022-12-18T21:03:43.046Z,47.28
2022-12-18T21:06:10.525Z,40.17
2022-12-18T21:08:37.605Z,44.45
2022-12-18T21:11:54.776Z,41.15
2022-12-18T21:14:24.085Z,40.22
2022-12-18T21:16:51.068Z,47.70
2022-12-18T21:19:20.696Z,39.10
2022-12-18T21:21:47.372Z,39.75
2022-12-18T21:24:14.305Z,44.58
2022-12-18T21:26:45.384Z,39.60
2022-12-18T21:29:15.976Z,41.08
2022-12-18T21:31:43.234Z,43.13
2022-12-18T21:34:16.220Z,42.08
2022-12-18T21:36:42.615Z,48.05
2022-12-18T21:39:09.096Z,47.67
2022-12-18T21:41:55.357Z,45.28
2022-12-18T21:44:23.155Z,44.47
2022-12-18T21:46:56.768Z,41.60
2022-12-18T21:49:26.807Z,42.20
2022-12-18T21:51:55.869Z,33.15
2022-12-18T21:54:22.826Z,39.38
2022-12-18T21:56:52.281Z,39.45
2022-12-18T21:59:21.832Z,36.90
2022-12-18T22:01:49.528Z,33.00
2022-12-18T22:04:16.974Z,39.72
2022-12-18T22:06:44.360Z,35.55
2022-12-18T22:09:14.152Z,32.70
2022-12-18T22:11:40.784Z,33.85
2022-12-18T22:14:07.233Z,31.90
2022-12-18T22:16:34.230Z,36.25
2022-12-18T22:19:02.366Z,26.63
2022-12-18T22:21:31.059Z,25.48
2022-12-18T22:24:06.107Z,28.05
2022-12-18T22:26:39.774Z,24.77
2022-12-18T22:29:26.437Z,26.60
2022-12-18T22:31:52.905Z,28.17
2022-12-18T22:34:22.792Z,31.35
2022-12-18T22:36:49.792Z,31.45
2022-12-18T22:39:22.125Z,28.95
2022-12-18T22:41:49.474Z,30.33
2022-12-18T22:44:17.548Z,31.77
2022-12-18T22:47:06.051Z,31.85
2022-12-18T22:49:34.793Z,26.83
2022-12-18T22:52:02.113Z,29.77
2022-12-18T22:54:28.538Z,25.58
2022-12-18T22:56:55.453Z,30.05
2022-12-18T22:59:23.221Z,25.20
2022-12-18T23:01:52.925Z,27.75
2022-12-18T23:04:36.152Z,23.80
2022-12-18T23:07:05.157Z,29.25
2022-12-18T23:09:32.378Z,23.58
2022-12-18T23:11:59.166Z,25.00
2022-12-18T23:14:25.622Z,26.63
2022-12-18T23:16:53.241Z,26.92
2022-12-18T23:19:20.181Z,34.03
2022-12-18T23:21:47.128Z,30.92
2022-12-18T23:24:14.440Z,32.45
2022-12-18T23:26:41.165Z,32.85
2022-12-18T23:29:08.062Z,32.35
2022-12-18T23:31:37.400Z,32.38
2022-12-18T23:34:05.667Z,28.48
2022-12-18T23:36:35.911Z,36.70
2022-12-18T23:39:28.392Z,35.15
2022-12-18T23:41:56.146Z,35.05
2022-12-18T23:44:22.596Z,29.50
2022-12-18T23:46:49.198Z,29.30
2022-12-18T23:49:15.648Z,27.58
2022-12-18T23:51:42.134Z,29.35
2022-12-18T23:54:10.012Z,29.08
2022-12-18T23:56:36.485Z,30.75
2022-12-18T23:59:02.947Z,28.27
